Time;durP1;ratioP1;P1;durP2;ratioP2;P2;SDS_P1;SDS_P2;PMS_P1;PMS_P2;Temp;Humidity;BMP_temperature;BMP_pressure;BME280_temperature;BME280_humidity;BME280_pressure;Samples;Min_cycle;Max_cycle;Signal;HPM_P1;HPM_P2
2023/12/17 00:01:09;;;;;;;1.40;1.10;;;11.80;99.90;;;;;;5074108;28;20362;-72
2023/12/17 00:03:35;;;;;;;2.05;1.88;;;11.90;99.90;;;;;;5059603;28;20048;-72
2023/12/17 00:06:01;;;;;;;0.90;0.65;;;11.80;99.90;;;;;;5073773;28;20021;-72
2023/12/17 00:08:27;;;;;;;2.50;2.30;;;11.70;99.90;;;;;;5075037;28;20123;-72
2023/12/17 00:10:53;;;;;;;1.73;1.63;;;11.80;99.90;;;;;;5075123;28;20033;-72
2023/12/17 00:13:19;;;;;;;0.20;0.20;;;11.80;99.90;;;;;;5057015;28;20082;-72
2023/12/17 00:15:45;;;;;;;0.65;0.65;;;11.90;99.90;;;;;;5075414;28;20033;-72
2023/12/17 00:18:12;;;;;;;5.40;3.15;;;11.90;99.90;;;;;;5075071;28;20032;-72
2023/12/17 00:20:39;;;;;;;1.20;1.15;;;11.70;99.90;;;;;;5074920;28;20040;-72
2023/12/17 00:23:05;;;;;;;1.13;1.02;;;11.70;99.90;;;;;;5074718;28;20485;-72
2023/12/17 00:25:31;;;;;;;3.72;1.38;;;11.70;99.90;;;;;;5074773;28;20032;-72
2023/12/17 00:27:57;;;;;;;2.08;1.88;;;11.80;99.90;;;;;;5074657;28;20033;-73
2023/12/17 00:30:23;;;;;;;0.50;0.43;;;11.80;99.90;;;;;;5074951;28;20384;-72
2023/12/17 00:32:49;;;;;;;1.25;0.82;;;11.80;99.90;;;;;;5060633;28;20039;-72
2023/12/17 00:35:15;;;;;;;0.40;0.30;;;11.90;99.90;;;;;;5075182;28;20048;-72
2023/12/17 00:37:41;;;;;;;0.60;0.60;;;11.90;99.90;;;;;;5073038;28;20021;-72
2023/12/17 00:40:08;;;;;;;0.75;0.75;;;11.80;99.90;;;;;;5074830;28;20040;-72
2023/12/17 00:42:34;;;;;;;1.27;1.10;;;11.90;99.90;;;;;;5073335;28;20029;-72
2023/12/17 00:45:00;;;;;;;1.17;0.85;;;11.90;99.90;;;;;;5074736;28;20036;-72
2023/12/17 00:47:26;;;;;;;0.85;0.35;;;12.00;99.90;;;;;;5074364;28;20033;-73
2023/12/17 00:49:52;;;;;;;0.65;0.65;;;12.00;99.90;;;;;;5074293;28;20515;-72
2023/12/17 00:52:20;;;;;;;4.30;2.10;;;12.10;99.90;;;;;;5072944;28;20103;-72
2023/12/17 00:54:46;;;;;;;3.65;1.05;;;12.00;99.90;;;;;;5074561;28;20469;-72
2023/12/17 00:57:12;;;;;;;3.33;0.80;;;11.80;99.90;;;;;;5074398;28;20032;-72
2023/12/17 00:59:38;;;;;;;1.75;1.65;;;11.90;99.90;;;;;;5074209;28;20048;-72
2023/12/17 01:02:04;;;;;;;0.10;0.10;;;11.80;99.90;;;;;;5072341;28;20024;-73
2023/12/17 01:04:30;;;;;;;6.72;4.88;;;12.10;99.90;;;;;;5061520;28;20029;-72
2023/12/17 01:06:55;;;;;;;6.70;3.72;;;11.90;99.90;;;;;;5068039;28;20028;-72
2023/12/17 01:09:22;;;;;;;0.10;0.10;;;11.90;99.90;;;;;;5073757;28;20031;-73
2023/12/17 01:11:48;;;;;;;0.30;0.30;;;11.90;99.90;;;;;;5072895;28;20033;-72
2023/12/17 01:14:14;;;;;;;4.95;2.05;;;12.10;99.90;;;;;;5072873;28;20039;-72
2023/12/17 01:16:40;;;;;;;2.65;0.98;;;12.00;99.90;;;;;;5073875;28;20017;-72
2023/12/17 01:19:06;;;;;;;1.45;1.35;;;12.10;99.90;;;;;;5073758;28;20397;-72
2023/12/17 01:21:31;;;;;;;0.28;0.28;;;12.00;99.90;;;;;;5073560;28;20064;-72
2023/12/17 01:23:58;;;;;;;2.38;1.30;;;12.00;99.90;;;;;;5073792;28;20082;-72
2023/12/17 01:26:29;;;;;;;3.00;2.15;;;12.00;99.90;;;;;;5073720;28;20025;-72
2023/12/17 01:28:55;;;;;;;5.75;4.22;;;12.00;99.90;;;;;;5073675;28;20047;-72
2023/12/17 01:31:21;;;;;;;6.40;1.48;;;11.80;99.90;;;;;;5072394;28;20028;-73
2023/12/17 01:33:47;;;;;;;0.25;0.25;;;12.00;99.90;;;;;;5072520;28;20393;-72
2023/12/17 01:36:13;;;;;;;1.75;1.25;;;11.90;99.90;;;;;;5073213;28;20051;-72
2023/12/17 01:38:38;;;;;;;1.55;1.33;;;11.80;99.90;;;;;;5073566;28;20023;-72
2023/12/17 01:41:06;;;;;;;1.33;1.17;;;11.90;99.90;;;;;;5072213;28;20571;-73
2023/12/17 01:43:32;;;;;;;3.45;2.10;;;11.90;99.90;;;;;;5073110;28;20103;-72
2023/12/17 01:45:59;;;;;;;0.52;0.52;;;11.80;99.90;;;;;;5073253;28;20024;-73
2023/12/17 01:48:26;;;;;;;2.13;1.65;;;11.80;99.90;;;;;;5072687;28;20106;-73
2023/12/17 01:50:56;;;;;;;0.90;0.88;;;11.90;99.90;;;;;;5073382;28;20016;-73
2023/12/17 01:53:23;;;;;;;6.50;3.72;;;12.00;99.90;;;;;;5055289;28;20020;-72
2023/12/17 01:55:50;;;;;;;0.05;0.05;;;11.90;99.90;;;;;;5073129;28;20028;-73
2023/12/17 01:58:16;;;;;;;12.02;3.90;;;12.00;99.90;;;;;;5073137;28;20032;-72
2023/12/17 02:00:44;;;;;;;6.55;4.43;;;11.90;99.90;;;;;;5072716;28;20116;-72
2023/12/17 02:03:10;;;;;;;1.75;1.17;;;11.80;99.90;;;;;;5064342;28;20423;-72
2023/12/17 02:05:36;;;;;;;9.27;3.90;;;11.80;99.90;;;;;;5072761;28;20054;-73
2023/12/17 02:08:03;;;;;;;8.30;3.03;;;11.80;99.90;;;;;;5062493;28;20032;-72
2023/12/17 02:10:30;;;;;;;4.25;1.83;;;11.80;99.90;;;;;;5068158;28;20031;-73
2023/12/17 02:12:59;;;;;;;1.90;1.17;;;11.80;99.90;;;;;;5058940;28;20029;-73
2023/12/17 02:15:24;;;;;;;0.68;0.65;;;11.90;99.90;;;;;;5072662;28;20086;-72
2023/12/17 02:17:50;;;;;;;0.30;0.30;;;11.90;99.90;;;;;;5072828;28;20028;-73
2023/12/17 02:20:16;;;;;;;0.60;0.60;;;12.00;99.90;;;;;;5067010;28;20013;-73
2023/12/17 02:22:43;;;;;;;2.03;1.75;;;12.00;99.90;;;;;;5064675;28;20550;-73
2023/12/17 02:25:10;;;;;;;2.67;1.38;;;12.00;99.90;;;;;;5071263;28;20025;-73
2023/12/17 02:27:36;;;;;;;9.32;2.72;;;11.90;99.90;;;;;;5071885;28;20040;-73
2023/12/17 02:30:02;;;;;;;0.10;0.10;;;12.00;99.90;;;;;;5072592;28;20112;-72
2023/12/17 02:32:28;;;;;;;0.68;0.47;;;11.80;99.90;;;;;;5072543;28;20024;-73
2023/12/17 02:34:54;;;;;;;7.78;3.47;;;11.70;99.90;;;;;;5072535;28;20056;-73
2023/12/17 02:37:20;;;;;;;0.98;0.88;;;11.70;99.90;;;;;;5066914;28;20060;-72
2023/12/17 02:39:46;;;;;;;2.45;1.55;;;11.50;99.90;;;;;;5063115;28;20048;-72
2023/12/17 02:42:12;;;;;;;3.72;1.67;;;11.50;99.90;;;;;;5072485;28;20498;-72
2023/12/17 02:44:38;;;;;;;1.17;0.85;;;11.60;99.90;;;;;;5072324;28;20046;-72
2023/12/17 02:47:04;;;;;;;1.80;1.65;;;11.60;99.90;;;;;;5072313;28;20116;-72
2023/12/17 02:49:31;;;;;;;0.45;0.45;;;11.80;99.90;;;;;;5071499;28;20107;-73
2023/12/17 02:51:58;;;;;;;2.92;2.72;;;11.70;99.90;;;;;;5072493;28;20027;-72
2023/12/17 02:54:24;;;;;;;7.15;3.20;;;11.50;99.90;;;;;;5072450;28;20407;-72
2023/12/17 02:56:53;;;;;;;5.65;1.95;;;11.60;99.90;;;;;;5072241;28;20116;-72
2023/12/17 02:59:19;;;;;;;2.80;1.75;;;11.80;99.90;;;;;;5072566;28;20077;-72
2023/12/17 03:01:45;;;;;;;0.60;0.30;;;11.80;99.90;;;;;;5072111;28;20111;-72
2023/12/17 03:04:12;;;;;;;3.95;2.40;;;11.70;99.90;;;;;;5072184;28;20075;-72
2023/12/17 03:06:38;;;;;;;0.85;0.85;;;11.60;99.90;;;;;;5072044;28;20024;-72
2023/12/17 03:09:05;;;;;;;2.30;1.75;;;11.50;99.90;;;;;;5072324;28;20113;-73
2023/12/17 03:11:30;;;;;;;3.83;2.22;;;11.40;99.90;;;;;;5064885;28;20017;-72
2023/12/17 03:13:57;;;;;;;0.77;0.77;;;11.30;99.90;;;;;;5064438;28;20025;-72
2023/12/17 03:16:27;;;;;;;1.33;0.88;;;11.30;99.90;;;;;;5071735;28;20488;-72
2023/12/17 03:18:53;;;;;;;2.47;2.08;;;11.20;99.90;;;;;;5072269;28;20063;-72
2023/12/17 03:21:19;;;;;;;4.28;0.95;;;11.10;99.90;;;;;;5072126;28;20446;-72
2023/12/17 03:23:45;;;;;;;0.43;0.43;;;11.10;99.90;;;;;;5054180;28;20415;-72
2023/12/17 03:26:11;;;;;;;0.00;0.00;;;11.10;99.90;;;;;;5071962;28;20056;-72
2023/12/17 03:28:37;;;;;;;1.73;1.05;;;11.20;99.90;;;;;;5071808;28;20389;-72
2023/12/17 03:31:03;;;;;;;1.45;0.35;;;11.40;99.90;;;;;;5071904;28;20440;-72
2023/12/17 03:33:29;;;;;;;0.00;0.00;;;11.30;99.90;;;;;;5072286;28;20064;-72
2023/12/17 03:35:55;;;;;;;12.13;5.53;;;11.50;99.90;;;;;;5070664;28;20059;-72
2023/12/17 03:38:21;;;;;;;9.57;4.18;;;11.30;99.90;;;;;;5055487;28;20025;-72
2023/12/17 03:40:47;;;;;;;2.65;1.48;;;11.20;99.90;;;;;;5075688;28;20111;-72
2023/12/17 03:43:13;;;;;;;9.60;6.60;;;11.10;99.90;;;;;;5075626;28;20028;-72
2023/12/17 03:45:39;;;;;;;1.67;1.58;;;10.90;99.90;;;;;;5074102;28;20387;-72
2023/12/17 03:48:06;;;;;;;3.15;1.23;;;11.00;99.90;;;;;;5057700;28;20043;-73
2023/12/17 03:50:32;;;;;;;1.45;0.80;;;10.90;99.90;;;;;;5075443;28;20028;-72
2023/12/17 03:52:58;;;;;;;0.75;0.75;;;10.90;99.90;;;;;;5075585;28;20403;-72
2023/12/17 03:55:24;;;;;;;9.45;3.40;;;10.80;99.90;;;;;;5075465;28;20445;-72
2023/12/17 03:57:49;;;;;;;10.32;1.85;;;10.80;99.90;;;;;;5075386;28;20020;-72
2023/12/17 04:00:15;;;;;;;1.45;1.15;;;10.80;99.90;;;;;;5075222;28;20393;-72
2023/12/17 04:02:41;;;;;;;4.93;2.35;;;10.70;99.90;;;;;;5073928;28;20028;-72
2023/12/17 04:05:08;;;;;;;1.88;1.05;;;10.70;99.90;;;;;;5075439;28;20445;-72
2023/12/17 04:07:34;;;;;;;1.70;1.20;;;10.70;99.90;;;;;;5075317;28;20032;-73
2023/12/17 04:10:03;;;;;;;15.23;3.55;;;10.70;99.90;;;;;;5074377;28;20036;-72
2023/12/17 04:12:29;;;;;;;0.45;0.45;;;10.80;99.90;;;;;;5061196;28;20025;-72
2023/12/17 04:14:54;;;;;;;4.68;3.17;;;10.80;99.90;;;;;;5045713;28;20067;-72
2023/12/17 04:17:20;;;;;;;0.00;0.00;;;10.90;99.90;;;;;;5075090;28;20516;-73
2023/12/17 04:19:46;;;;;;;5.93;3.53;;;11.00;99.90;;;;;;5073783;28;20029;-72
2023/12/17 04:22:12;;;;;;;1.20;1.10;;;11.00;99.90;;;;;;5075066;28;20032;-72
2023/12/17 04:24:39;;;;;;;0.00;0.00;;;11.00;99.90;;;;;;5074784;28;20032;-73
2023/12/17 04:27:06;;;;;;;53.33;4.70;;;11.00;99.90;;;;;;5074882;28;20068;-72
2023/12/17 04:29:32;;;;;;;2.08;1.42;;;10.70;99.90;;;;;;5074888;28;20032;-72
2023/12/17 04:31:58;;;;;;;9.93;3.13;;;10.70;99.90;;;;;;5074808;28;20136;-72
2023/12/17 04:34:23;;;;;;;4.25;3.13;;;10.70;99.90;;;;;;5074877;28;20108;-72
2023/12/17 04:36:49;;;;;;;0.82;0.77;;;10.70;99.90;;;;;;5074678;28;20023;-72
2023/12/17 04:39:15;;;;;;;0.32;0.32;;;10.70;99.90;;;;;;5074724;28;20472;-72
2023/12/17 04:41:42;;;;;;;4.60;2.80;;;10.60;99.90;;;;;;5073315;28;20036;-73
2023/12/17 04:44:08;;;;;;;2.28;1.88;;;10.70;99.90;;;;;;5074186;28;20029;-72
2023/12/17 04:46:34;;;;;;;4.72;2.05;;;10.60;99.90;;;;;;5074462;28;20086;-72
2023/12/17 04:49:00;;;;;;;0.70;0.65;;;10.50;99.90;;;;;;5072720;28;20048;-72
2023/12/17 04:51:26;;;;;;;9.07;3.70;;;10.60;99.90;;;;;;5072861;28;20092;-72
2023/12/17 04:53:53;;;;;;;5.60;2.63;;;10.70;99.90;;;;;;5074220;28;20037;-72
2023/12/17 04:56:21;;;;;;;10.13;2.60;;;10.80;99.90;;;;;;5074578;28;20028;-72
2023/12/17 04:58:47;;;;;;;5.55;3.03;;;10.70;99.90;;;;;;5072599;28;20039;-72
2023/12/17 05:01:13;;;;;;;10.50;2.22;;;10.70;99.90;;;;;;5074487;28;20381;-72
2023/12/17 05:03:38;;;;;;;3.20;1.38;;;10.60;99.90;;;;;;5074008;28;20388;-73
2023/12/17 05:06:05;;;;;;;5.47;2.63;;;10.60;99.90;;;;;;5072786;28;20425;-72
2023/12/17 05:08:31;;;;;;;4.80;2.17;;;10.60;99.90;;;;;;5074179;28;20036;-72
2023/12/17 05:10:57;;;;;;;6.10;3.33;;;10.70;99.90;;;;;;5072455;28;20366;-72
2023/12/17 05:13:23;;;;;;;6.93;3.40;;;10.60;99.90;;;;;;5061276;28;20452;-72
2023/12/17 05:15:49;;;;;;;3.92;2.33;;;10.50;99.90;;;;;;5073796;28;20020;-72
2023/12/17 05:18:16;;;;;;;1.80;1.08;;;10.60;99.90;;;;;;5073654;28;20040;-72
2023/12/17 05:20:42;;;;;;;5.07;2.83;;;10.80;99.90;;;;;;5073927;28;20032;-72
2023/12/17 05:23:12;;;;;;;1.90;0.85;;;10.80;99.90;;;;;;5073472;28;20027;-72
2023/12/17 05:25:41;;;;;;;3.20;2.55;;;11.00;99.90;;;;;;5073624;28;20101;-72
2023/12/17 05:28:09;;;;;;;9.05;3.75;;;10.80;99.90;;;;;;5073043;28;20048;-72
2023/12/17 05:30:35;;;;;;;2.92;2.10;;;10.70;99.90;;;;;;5073624;28;20020;-72
2023/12/17 05:33:02;;;;;;;1.65;1.45;;;10.60;99.90;;;;;;5073270;28;20425;-72
2023/12/17 05:35:28;;;;;;;2.60;2.05;;;10.50;99.90;;;;;;5073663;28;20109;-72
2023/12/17 05:37:53;;;;;;;4.40;2.25;;;10.60;99.90;;;;;;5066611;28;20107;-72
2023/12/17 05:40:19;;;;;;;1.00;1.00;;;10.50;99.90;;;;;;5070921;28;20074;-72
2023/12/17 05:42:45;;;;;;;0.52;0.52;;;10.60;99.90;;;;;;5073387;28;20028;-72
2023/12/17 05:45:11;;;;;;;2.38;1.33;;;10.60;99.90;;;;;;5073063;28;20020;-72
2023/12/17 05:47:39;;;;;;;2.45;1.17;;;10.60;99.90;;;;;;5072129;28;20036;-72
2023/12/17 05:50:05;;;;;;;4.72;3.88;;;10.70;99.90;;;;;;5071701;28;20041;-73
2023/12/17 05:52:32;;;;;;;3.53;1.67;;;10.50;99.90;;;;;;5073312;28;20026;-73
2023/12/17 05:54:57;;;;;;;11.48;3.35;;;10.50;99.90;;;;;;5071275;28;20028;-73
2023/12/17 05:57:23;;;;;;;4.47;1.58;;;10.40;99.90;;;;;;5072104;28;20027;-72
2023/12/17 05:59:49;;;;;;;0.77;0.75;;;10.60;99.90;;;;;;5073105;28;20090;-72
2023/12/17 06:02:15;;;;;;;2.70;1.63;;;10.50;99.90;;;;;;5040497;28;20044;-72
2023/12/17 06:04:41;;;;;;;3.80;2.40;;;10.40;99.90;;;;;;5052449;28;20051;-72
2023/12/17 06:07:06;;;;;;;5.40;3.63;;;10.30;99.90;;;;;;5051661;28;20027;-72
2023/12/17 06:09:32;;;;;;;11.77;4.95;;;10.30;99.90;;;;;;5052178;28;20032;-72
2023/12/17 06:11:58;;;;;;;8.20;3.28;;;10.50;99.90;;;;;;5052844;28;20028;-72
2023/12/17 06:14:24;;;;;;;3.45;2.65;;;10.50;99.90;;;;;;5068564;28;20132;-72
2023/12/17 06:16:50;;;;;;;7.90;4.05;;;10.40;99.90;;;;;;5071567;28;20035;-72
2023/12/17 06:19:16;;;;;;;6.25;3.30;;;10.40;99.90;;;;;;5072941;28;20020;-72
2023/12/17 06:21:42;;;;;;;8.45;4.38;;;10.40;99.90;;;;;;5072886;28;20024;-72
2023/12/17 06:24:08;;;;;;;8.85;5.03;;;10.30;99.90;;;;;;5072583;28;20150;-72
2023/12/17 06:26:36;;;;;;;1.45;1.25;;;10.30;99.90;;;;;;5072712;28;20047;-72
2023/12/17 06:29:02;;;;;;;6.70;3.33;;;10.20;99.90;;;;;;5072844;28;20071;-72
2023/12/17 06:31:30;;;;;;;1.98;1.77;;;10.20;99.90;;;;;;5072547;28;20035;-72
2023/12/17 06:33:56;;;;;;;7.88;4.05;;;10.20;99.90;;;;;;5072786;28;20021;-72
2023/12/17 06:36:22;;;;;;;3.95;2.00;;;10.30;99.90;;;;;;5072670;28;20112;-72
2023/12/17 06:38:48;;;;;;;2.15;2.05;;;10.40;99.90;;;;;;5065859;28;20017;-72
2023/12/17 06:41:14;;;;;;;6.63;4.10;;;10.30;99.90;;;;;;5065569;28;20028;-72
2023/12/17 06:43:40;;;;;;;6.53;3.75;;;10.40;99.90;;;;;;5072432;28;20027;-72
2023/12/17 06:46:06;;;;;;;9.07;4.60;;;10.30;99.90;;;;;;5072444;28;20027;-73
2023/12/17 06:48:33;;;;;;;8.05;2.35;;;10.20;99.90;;;;;;5072461;28;20033;-72
2023/12/17 06:51:00;;;;;;;8.68;4.47;;;10.20;99.90;;;;;;5072286;28;20473;-73
2023/12/17 06:53:26;;;;;;;1.20;1.10;;;10.20;99.90;;;;;;5072042;28;20025;-73
2023/12/17 06:55:52;;;;;;;0.00;0.00;;;10.30;99.90;;;;;;5066318;28;20381;-73
2023/12/17 06:58:17;;;;;;;9.30;4.95;;;10.50;99.90;;;;;;5043836;28;20112;-72
2023/12/17 07:00:43;;;;;;;11.30;5.45;;;10.40;99.90;;;;;;5061489;28;20029;-73
2023/12/17 07:03:09;;;;;;;8.30;2.70;;;10.30;99.90;;;;;;5046542;28;20028;-72
2023/12/17 07:05:35;;;;;;;9.35;3.20;;;10.20;99.90;;;;;;5058866;28;20027;-72
2023/12/17 07:08:01;;;;;;;8.52;3.83;;;10.20;99.90;;;;;;5058005;28;20064;-72
2023/12/17 07:10:27;;;;;;;3.20;2.90;;;10.10;99.90;;;;;;5064946;28;20503;-73
2023/12/17 07:12:53;;;;;;;2.63;2.33;;;10.20;99.90;;;;;;5054569;28;20033;-72
2023/12/17 07:15:18;;;;;;;8.32;4.15;;;10.20;99.90;;;;;;5075765;28;20013;-72
2023/12/17 07:17:44;;;;;;;4.97;2.67;;;10.20;99.90;;;;;;5067569;28;20507;-72
2023/12/17 07:20:10;;;;;;;6.28;4.85;;;10.20;99.90;;;;;;5055768;28;20116;-73
2023/12/17 07:22:36;;;;;;;3.65;2.58;;;10.30;99.90;;;;;;5060344;28;20786;-72
2023/12/17 07:25:03;;;;;;;4.30;1.88;;;10.40;99.90;;;;;;5058452;28;20031;-72
2023/12/17 07:27:28;;;;;;;3.65;2.20;;;10.30;99.90;;;;;;5068719;28;20021;-72
2023/12/17 07:29:54;;;;;;;16.50;8.77;;;10.40;99.90;;;;;;5061343;28;20029;-73
2023/12/17 07:32:20;;;;;;;6.63;4.38;;;10.30;99.90;;;;;;5055445;28;20104;-72
2023/12/17 07:34:46;;;;;;;1.83;1.45;;;10.10;99.90;;;;;;5053244;28;20517;-72
2023/12/17 07:37:12;;;;;;;7.82;2.65;;;10.20;99.90;;;;;;5068457;28;20168;-76
2023/12/17 07:39:37;;;;;;;12.15;6.50;;;10.20;99.90;;;;;;5067906;28;20036;-72
2023/12/17 07:42:03;;;;;;;6.53;4.32;;;10.00;99.90;;;;;;5059683;28;20100;-73
2023/12/17 07:44:30;;;;;;;19.05;10.70;;;10.00;99.90;;;;;;5056748;28;20029;-72
2023/12/17 07:46:57;;;;;;;5.38;3.72;;;10.00;99.90;;;;;;5060288;28;20044;-72
2023/12/17 07:49:24;;;;;;;6.32;2.67;;;9.90;99.90;;;;;;5067514;28;20037;-72
2023/12/17 07:51:52;;;;;;;8.65;4.10;;;9.80;99.90;;;;;;5057115;28;20473;-74
2023/12/17 07:54:18;;;;;;;31.60;6.30;;;9.80;99.90;;;;;;5060376;28;20021;-74
2023/12/17 07:56:44;;;;;;;20.42;9.63;;;9.60;99.90;;;;;;5066050;28;20063;-73
2023/12/17 07:59:10;;;;;;;7.28;2.08;;;9.60;99.90;;;;;;5065171;28;20016;-73
2023/12/17 08:01:36;;;;;;;5.70;3.00;;;9.70;99.90;;;;;;5069195;28;20032;-73
2023/12/17 08:04:03;;;;;;;4.03;2.88;;;9.60;99.90;;;;;;5055836;28;20060;-73
2023/12/17 08:06:28;;;;;;;5.32;2.60;;;9.70;99.90;;;;;;5063637;28;20020;-73
2023/12/17 08:08:56;;;;;;;1.98;1.77;;;9.80;99.90;;;;;;5053198;28;20494;-74
2023/12/17 08:11:22;;;;;;;6.90;2.75;;;9.70;99.90;;;;;;5066743;28;20032;-73
2023/12/17 08:13:48;;;;;;;4.22;2.28;;;9.80;99.90;;;;;;5064894;28;20029;-73
2023/12/17 08:16:14;;;;;;;4.18;2.72;;;9.40;99.90;;;;;;5074644;28;20028;-73
2023/12/17 08:18:40;;;;;;;24.13;11.15;;;9.20;99.90;;;;;;5074331;28;20024;-73
2023/12/17 08:21:06;;;;;;;6.80;3.30;;;9.10;99.90;;;;;;5072262;28;20063;-72
2023/12/17 08:23:32;;;;;;;16.08;7.57;;;9.20;99.90;;;;;;5073886;28;20028;-73
2023/12/17 08:25:58;;;;;;;12.73;6.65;;;9.30;99.90;;;;;;5075070;28;20162;-73
2023/12/17 08:28:24;;;;;;;15.50;3.78;;;9.20;99.90;;;;;;5069717;28;20037;-74
2023/12/17 08:30:50;;;;;;;5.55;3.65;;;9.20;99.90;;;;;;5064426;28;20025;-73
2023/12/17 08:33:16;;;;;;;6.47;1.67;;;9.20;99.90;;;;;;5072952;28;20526;-73
2023/12/17 08:35:44;;;;;;;4.95;3.47;;;9.40;99.90;;;;;;5073186;28;20017;-73
2023/12/17 08:38:10;;;;;;;2.00;1.60;;;9.30;99.90;;;;;;5074524;28;20101;-73
2023/12/17 08:40:38;;;;;;;5.47;2.58;;;9.40;99.90;;;;;;5074598;28;20461;-73
2023/12/17 08:43:06;;;;;;;8.40;4.38;;;9.30;99.90;;;;;;5056414;28;20032;-73
2023/12/17 08:45:35;;;;;;;15.48;5.38;;;9.40;99.90;;;;;;5070342;28;20476;-72
2023/12/17 08:48:01;;;;;;;21.35;9.15;;;9.20;99.90;;;;;;5054020;28;20033;-72
2023/12/17 08:50:27;;;;;;;35.40;9.35;;;9.10;99.90;;;;;;5053872;28;20025;-74
2023/12/17 08:52:54;;;;;;;3.53;2.72;;;9.10;99.90;;;;;;5054155;28;20473;-73
2023/12/17 08:55:20;;;;;;;0.45;0.45;;;9.00;99.90;;;;;;5053965;28;20037;-75
2023/12/17 08:57:46;;;;;;;4.75;2.70;;;9.20;99.90;;;;;;5053163;28;20033;-74
2023/12/17 09:00:13;;;;;;;4.13;2.55;;;9.10;99.90;;;;;;5053886;28;20103;-74
2023/12/17 09:02:39;;;;;;;4.78;3.22;;;9.20;99.90;;;;;;5051434;28;20525;-72
2023/12/17 09:05:06;;;;;;;4.25;2.38;;;9.20;99.90;;;;;;5052286;28;20039;-72
2023/12/17 09:07:32;;;;;;;5.90;3.05;;;9.10;99.90;;;;;;5064073;28;20032;-72
2023/12/17 09:09:59;;;;;;;6.05;1.40;;;9.20;99.90;;;;;;5065484;28;20090;-72
2023/12/17 09:12:24;;;;;;;2.75;1.77;;;9.40;99.90;;;;;;5060464;28;20420;-72
2023/12/17 09:14:50;;;;;;;17.77;4.75;;;9.40;99.90;;;;;;5055708;28;20098;-72
2023/12/17 09:17:16;;;;;;;19.83;3.60;;;9.10;99.90;;;;;;5054580;28;20029;-72
2023/12/17 09:19:42;;;;;;;2.83;1.45;;;9.10;99.90;;;;;;5051920;28;20488;-72
2023/12/17 09:22:08;;;;;;;3.72;2.85;;;9.10;99.90;;;;;;5058206;28;20048;-72
2023/12/17 09:24:34;;;;;;;28.95;8.25;;;9.30;99.90;;;;;;5062828;28;20016;-72
2023/12/17 09:27:02;;;;;;;10.00;3.10;;;9.30;99.90;;;;;;5058040;28;20044;-72
2023/12/17 09:29:28;;;;;;;1.52;1.02;;;9.40;99.90;;;;;;5053042;28;20032;-72
2023/12/17 09:31:53;;;;;;;12.98;5.47;;;9.70;99.90;;;;;;5051916;28;20029;-72
2023/12/17 09:34:20;;;;;;;9.27;3.45;;;9.70;99.90;;;;;;5048940;28;20021;-72
2023/12/17 09:36:46;;;;;;;1.10;1.10;;;9.80;99.90;;;;;;5051570;28;20465;-72
2023/12/17 09:39:12;;;;;;;19.52;6.00;;;9.90;99.90;;;;;;5050662;28;20033;-72
2023/12/17 09:41:42;;;;;;;0.50;0.50;;;9.90;99.90;;;;;;5052769;28;20029;-72
2023/12/17 09:44:08;;;;;;;7.22;3.83;;;9.90;99.90;;;;;;5053012;28;20377;-72
2023/12/17 09:46:35;;;;;;;8.38;3.40;;;10.10;99.90;;;;;;5052886;28;20114;-70
2023/12/17 09:49:01;;;;;;;3.10;1.23;;;9.60;99.90;;;;;;5052649;28;20033;-74
2023/12/17 09:51:28;;;;;;;32.95;11.43;;;10.00;99.90;;;;;;5037820;28;20021;-72
2023/12/17 09:53:58;;;;;;;23.83;5.57;;;9.90;99.90;;;;;;5050428;28;20466;-72
2023/12/17 09:56:24;;;;;;;16.85;5.07;;;9.90;99.90;;;;;;5052111;28;20055;-72
2023/12/17 09:58:50;;;;;;;7.72;3.38;;;9.90;99.90;;;;;;5040194;28;20543;-72
2023/12/17 10:01:16;;;;;;;3.55;3.22;;;10.20;99.90;;;;;;5044928;28;20021;-72
2023/12/17 10:03:41;;;;;;;1.30;1.20;;;10.30;99.90;;;;;;5045284;28;20079;-72
2023/12/17 10:06:08;;;;;;;10.13;4.57;;;10.40;99.90;;;;;;5051257;28;20117;-72
2023/12/17 10:08:36;;;;;;;9.77;2.40;;;10.40;99.90;;;;;;5052724;28;20448;-72
2023/12/17 10:11:02;;;;;;;17.27;3.40;;;10.40;99.90;;;;;;5052658;28;20115;-72
2023/12/17 10:13:28;;;;;;;2.65;1.63;;;10.30;99.90;;;;;;5059846;28;20099;-72
2023/12/17 10:15:55;;;;;;;11.82;4.72;;;9.80;99.90;;;;;;5072246;28;20485;-72
2023/12/17 10:18:22;;;;;;;7.18;1.05;;;9.60;99.90;;;;;;5073138;28;20080;-72
2023/12/17 10:20:49;;;;;;;1.65;1.02;;;9.90;99.90;;;;;;5071521;28;20032;-73
2023/12/17 10:23:15;;;;;;;0.75;0.75;;;10.30;99.90;;;;;;5071388;28;20017;-72
2023/12/17 10:25:43;;;;;;;1.17;0.75;;;10.80;99.90;;;;;;5072819;28;20434;-73
2023/12/17 10:28:10;;;;;;;8.05;3.55;;;10.90;99.90;;;;;;5071358;28;20397;-73
2023/12/17 10:30:36;;;;;;;1.88;0.98;;;11.10;99.90;;;;;;5072083;28;20032;-73
2023/12/17 10:33:03;;;;;;;3.50;1.92;;;11.20;99.90;;;;;;5072709;28;20388;-73
2023/12/17 10:35:32;;;;;;;0.17;0.17;;;10.60;99.90;;;;;;5072486;28;20028;-72
2023/12/17 10:38:00;;;;;;;0.70;0.68;;;10.70;99.90;;;;;;5072691;28;20032;-73
2023/12/17 10:40:28;;;;;;;19.40;5.05;;;10.90;99.90;;;;;;5071394;28;20028;-72
2023/12/17 10:42:56;;;;;;;8.80;1.27;;;10.90;99.90;;;;;;5072595;28;20016;-72
2023/12/17 10:45:23;;;;;;;2.60;2.20;;;10.80;99.90;;;;;;5070526;28;20444;-72
2023/12/17 10:47:56;;;;;;;0.40;0.40;;;11.10;99.90;;;;;;5070328;28;20397;-72
2023/12/17 10:50:22;;;;;;;0.50;0.50;;;11.40;99.90;;;;;;5072247;28;20369;-72
2023/12/17 10:52:49;;;;;;;0.13;0.13;;;11.30;99.90;;;;;;5071424;28;20388;-72
2023/12/17 10:55:15;;;;;;;6.93;2.80;;;11.50;99.90;;;;;;5072105;28;20046;-72
2023/12/17 10:57:58;;;;;;;8.73;2.88;;;11.20;99.90;;;;;;5072407;28;20032;-72
2023/12/17 11:00:30;;;;;;;0.00;0.00;;;10.80;99.90;;;;;;5069237;28;20056;-72
2023/12/17 11:02:59;;;;;;;5.60;1.55;;;11.00;99.90;;;;;;5051961;28;20112;-72
2023/12/17 11:05:25;;;;;;;1.85;1.23;;;11.20;99.90;;;;;;5051707;28;20029;-72
2023/12/17 11:07:52;;;;;;;1.10;1.02;;;11.30;99.90;;;;;;5052083;28;20363;-72
2023/12/17 11:10:17;;;;;;;3.80;2.05;;;11.00;99.90;;;;;;5052290;28;20037;-72
2023/12/17 11:12:46;;;;;;;13.40;4.13;;;11.20;99.90;;;;;;5053861;28;20029;-72
2023/12/17 11:15:13;;;;;;;0.20;0.20;;;11.60;99.90;;;;;;5072105;28;20384;-72
2023/12/17 11:17:40;;;;;;;14.45;3.05;;;11.80;99.90;;;;;;5070691;28;20028;-72
2023/12/17 11:20:07;;;;;;;9.98;3.33;;;11.80;99.90;;;;;;5072223;28;20016;-72
2023/12/17 11:22:36;;;;;;;0.47;0.47;;;11.70;99.90;;;;;;5072035;28;20029;-72
2023/12/17 11:25:04;;;;;;;2.72;2.53;;;12.00;99.90;;;;;;5071967;28;20037;-72
2023/12/17 11:27:34;;;;;;;7.78;4.43;;;12.70;99.90;;;;;;5071979;28;20024;-72
2023/12/17 11:30:00;;;;;;;7.30;2.55;;;12.40;99.90;;;;;;5071709;28;20029;-72
2023/12/17 11:32:27;;;;;;;4.38;1.65;;;12.00;99.90;;;;;;5071865;28;20533;-73
2023/12/17 11:34:54;;;;;;;0.00;0.00;;;12.30;99.90;;;;;;5072062;28;20055;-72
2023/12/17 11:37:21;;;;;;;5.32;1.85;;;12.40;99.90;;;;;;5072020;28;20108;-72
2023/12/17 11:39:49;;;;;;;1.23;1.08;;;12.20;99.90;;;;;;5071960;28;20020;-72
2023/12/17 11:42:16;;;;;;;7.05;2.95;;;12.40;99.90;;;;;;5071871;28;20029;-72
2023/12/17 11:44:43;;;;;;;2.70;0.90;;;13.00;99.90;;;;;;5071784;28;20342;-72
2023/12/17 11:47:14;;;;;;;5.80;1.48;;;12.70;99.90;;;;;;5070486;28;20032;-72
2023/12/17 11:49:44;;;;;;;5.68;1.02;;;12.50;99.90;;;;;;5072118;28;20068;-72
2023/12/17 11:52:15;;;;;;;3.92;2.17;;;13.00;99.90;;;;;;5070465;28;20045;-72
2023/12/17 11:54:42;;;;;;;6.93;1.77;;;13.10;99.90;;;;;;5071854;28;20067;-72
2023/12/17 11:57:22;;;;;;;0.75;0.70;;;13.00;99.90;;;;;;5071871;28;20138;-72
2023/12/17 11:59:48;;;;;;;15.77;0.55;;;13.30;99.90;;;;;;5073903;28;20024;-72
2023/12/17 12:02:16;;;;;;;3.53;1.48;;;13.50;99.90;;;;;;5075113;28;20070;-72
2023/12/17 12:04:47;;;;;;;13.32;1.55;;;13.70;99.90;;;;;;5073754;28;20051;-72
2023/12/17 12:07:18;;;;;;;1.73;1.60;;;14.10;99.90;;;;;;5073839;28;20064;-72
2023/12/17 12:09:48;;;;;;;3.95;1.42;;;13.60;99.90;;;;;;5075174;28;20040;-72
2023/12/17 12:12:18;;;;;;;2.53;1.27;;;12.90;99.90;;;;;;5062810;28;20420;-72
2023/12/17 12:14:46;;;;;;;0.22;0.22;;;13.00;99.90;;;;;;5073692;28;20055;-72
2023/12/17 12:17:41;;;;;;;0.38;0.38;;;13.40;99.90;;;;;;5075347;28;20112;-72
2023/12/17 12:20:07;;;;;;;6.97;3.45;;;13.70;99.90;;;;;;5048673;28;20020;-72
2023/12/17 12:22:37;;;;;;;0.47;0.40;;;13.10;99.90;;;;;;5074651;28;20033;-72
2023/12/17 12:25:03;;;;;;;13.48;2.17;;;12.80;99.90;;;;;;5074881;28;20032;-72
2023/12/17 12:27:29;;;;;;;1.08;0.90;;;13.10;99.90;;;;;;5074327;28;20056;-72
2023/12/17 12:29:58;;;;;;;5.80;1.90;;;13.60;99.90;;;;;;5073526;28;20500;-72
2023/12/17 12:32:31;;;;;;;0.98;0.88;;;13.20;99.90;;;;;;5074792;28;20043;-72
2023/12/17 12:35:03;;;;;;;2.50;1.95;;;12.80;99.90;;;;;;5074612;28;20025;-72
2023/12/17 12:37:32;;;;;;;1.65;1.08;;;13.00;99.90;;;;;;5074747;28;20093;-72
2023/12/17 12:39:58;;;;;;;2.63;0.85;;;13.00;99.90;;;;;;5074619;28;20044;-72
2023/12/17 12:42:23;;;;;;;1.17;0.50;;;13.40;99.90;;;;;;5073994;28;20418;-72
2023/12/17 12:44:49;;;;;;;5.60;2.78;;;13.70;99.90;;;;;;5074020;28;20381;-72